sensor_id;sensor_type;location;lat;lon;timestamp;pressure;altitude;pressure_sealevel;temperature;humidity
12624;BME280;6377;42.836;23.998;2023-08-06T15:37:49;94433.84;;;29.36;52.52
12624;BME280;6377;42.836;23.998;2023-08-06T15:40:16;94473.59;;;29.83;52.16
12624;BME280;6377;42.836;23.998;2023-08-06T15:42:43;94477.28;;;29.87;51.94
12624;BME280;6377;42.836;23.998;2023-08-06T15:45:10;94477.47;;;29.74;52.09
12624;BME280;6377;42.836;23.998;2023-08-06T15:47:37;94470.56;;;29.85;51.54
12624;BME280;6377;42.836;23.998;2023-08-06T15:50:07;94453.53;;;29.50;52.26
12624;BME280;6377;42.836;23.998;2023-08-06T15:52:35;94455.50;;;29.24;52.74
12624;BME280;6377;42.836;23.998;2023-08-06T15:55:04;94467.81;;;29.21;53.42
12624;BME280;6377;42.836;23.998;2023-08-06T15:57:32;94468.34;;;29.15;53.39
12624;BME280;6377;42.836;23.998;2023-08-06T15:59:59;94472.69;;;28.99;53.66
12624;BME280;6377;42.836;23.998;2023-08-06T16:02:26;94467.72;;;28.83;55.05
12624;BME280;6377;42.836;23.998;2023-08-06T16:04:54;94483.91;;;28.80;54.72
12624;BME280;6377;42.836;23.998;2023-08-06T16:07:22;94478.31;;;28.76;55.03
12624;BME280;6377;42.836;23.998;2023-08-06T16:09:50;94488.56;;;28.79;55.22
12624;BME280;6377;42.836;23.998;2023-08-06T16:12:18;94480.41;;;28.79;55.08
12624;BME280;6377;42.836;23.998;2023-08-06T16:14:46;94499.59;;;28.83;55.63
12624;BME280;6377;42.836;23.998;2023-08-06T16:17:13;94482.31;;;28.70;55.80
12624;BME280;6377;42.836;23.998;2023-08-06T16:19:40;94496.56;;;28.67;56.36
12624;BME280;6377;42.836;23.998;2023-08-06T16:22:08;94495.72;;;28.41;55.63
12624;BME280;6377;42.836;23.998;2023-08-06T16:24:35;94509.91;;;28.21;56.62
12624;BME280;6377;42.836;23.998;2023-08-06T16:27:02;94510.06;;;28.16;57.44
12624;BME280;6377;42.836;23.998;2023-08-06T16:29:31;94493.97;;;27.89;58.24
12624;BME280;6377;42.836;23.998;2023-08-06T16:31:59;94513.38;;;27.65;59.78
12624;BME280;6377;42.836;23.998;2023-08-06T16:34:26;94515.38;;;27.51;60.93
12624;BME280;6377;42.836;23.998;2023-08-06T16:36:54;94519.25;;;27.58;60.90
12624;BME280;6377;42.836;23.998;2023-08-06T16:39:21;94519.34;;;27.22;62.69
12624;BME280;6377;42.836;23.998;2023-08-06T16:41:49;94518.19;;;27.15;63.33
12624;BME280;6377;42.836;23.998;2023-08-06T16:44:16;94497.09;;;26.90;64.05
12624;BME280;6377;42.836;23.998;2023-08-06T16:46:45;94523.72;;;27.10;63.95
12624;BME280;6377;42.836;23.998;2023-08-06T16:49:12;94527.19;;;27.02;64.24
12624;BME280;6377;42.836;23.998;2023-08-06T16:51:39;94529.00;;;27.06;64.82
12624;BME280;6377;42.836;23.998;2023-08-06T16:54:06;94534.72;;;27.05;64.95
12624;BME280;6377;42.836;23.998;2023-08-06T16:56:33;94536.63;;;27.04;66.14
12624;BME280;6377;42.836;23.998;2023-08-06T16:59:01;94541.31;;;26.90;65.36
12624;BME280;6377;42.836;23.998;2023-08-06T17:01:28;94552.16;;;26.90;65.99
12624;BME280;6377;42.836;23.998;2023-08-06T17:03:57;94551.44;;;26.49;68.66
12624;BME280;6377;42.836;23.998;2023-08-06T17:06:24;94547.44;;;26.46;68.11
12624;BME280;6377;42.836;23.998;2023-08-06T17:08:51;94554.19;;;26.35;69.56
12624;BME280;6377;42.836;23.998;2023-08-06T17:11:19;94529.09;;;26.16;70.12
12624;BME280;6377;42.836;23.998;2023-08-06T17:13:46;94552.28;;;26.36;72.60
12624;BME280;6377;42.836;23.998;2023-08-06T17:16:13;94535.03;;;26.18;74.99
12624;BME280;6377;42.836;23.998;2023-08-06T17:18:42;94550.50;;;26.17;75.19
12624;BME280;6377;42.836;23.998;2023-08-06T17:21:10;94531.50;;;25.90;73.70
12624;BME280;6377;42.836;23.998;2023-08-06T17:23:38;94552.88;;;26.05;73.90
12624;BME280;6377;42.836;23.998;2023-08-06T17:26:05;94561.59;;;26.02;76.50
12624;BME280;6377;42.836;23.998;2023-08-06T17:28:32;94561.81;;;25.79;79.11
12624;BME280;6377;42.836;23.998;2023-08-06T17:30:59;94563.47;;;25.61;80.24
12624;BME280;6377;42.836;23.998;2023-08-06T17:33:26;94556.19;;;25.43;81.27
12624;BME280;6377;42.836;23.998;2023-08-06T17:35:53;94548.28;;;25.33;82.62
12624;BME280;6377;42.836;23.998;2023-08-06T17:38:22;94551.69;;;25.06;87.35
12624;BME280;6377;42.836;23.998;2023-08-06T17:40:53;94567.28;;;24.77;92.51
12624;BME280;6377;42.836;23.998;2023-08-06T17:43:21;94560.91;;;24.49;95.32
12624;BME280;6377;42.836;23.998;2023-08-06T17:45:48;94570.25;;;24.38;97.39
12624;BME280;6377;42.836;23.998;2023-08-06T17:48:15;94576.78;;;24.13;99.52
12624;BME280;6377;42.836;23.998;2023-08-06T17:50:44;94587.28;;;23.91;100.00
12624;BME280;6377;42.836;23.998;2023-08-06T17:53:11;94578.94;;;23.64;100.00
12624;BME280;6377;42.836;23.998;2023-08-06T17:55:40;94595.94;;;23.64;100.00
12624;BME280;6377;42.836;23.998;2023-08-06T17:58:08;94603.34;;;23.54;100.00
12624;BME280;6377;42.836;23.998;2023-08-06T18:00:35;94572.28;;;23.22;100.00
12624;BME280;6377;42.836;23.998;2023-08-06T18:03:03;94610.69;;;23.48;100.00
12624;BME280;6377;42.836;23.998;2023-08-06T18:05:30;94612.50;;;23.53;100.00
12624;BME280;6377;42.836;23.998;2023-08-06T18:07:58;94614.88;;;23.25;100.00
12624;BME280;6377;42.836;23.998;2023-08-06T18:10:25;94623.81;;;23.21;100.00
12624;BME280;6377;42.836;23.998;2023-08-06T18:12:54;94635.53;;;23.06;100.00
12624;BME280;6377;42.836;23.998;2023-08-06T18:15:21;94625.41;;;22.88;100.00
12624;BME280;6377;42.836;23.998;2023-08-06T18:17:49;94636.63;;;23.05;100.00
12624;BME280;6377;42.836;23.998;2023-08-06T18:20:16;94652.66;;;22.86;100.00
12624;BME280;6377;42.836;23.998;2023-08-06T18:22:43;94654.84;;;22.79;100.00
12624;BME280;6377;42.836;23.998;2023-08-06T18:25:10;94657.03;;;22.72;100.00
12624;BME280;6377;42.836;23.998;2023-08-06T18:27:37;94637.44;;;22.52;100.00
12624;BME280;6377;42.836;23.998;2023-08-06T18:30:10;94685.81;;;22.87;100.00
12624;BME280;6377;42.836;23.998;2023-08-06T18:32:37;94641.13;;;22.76;100.00
12624;BME280;6377;42.836;23.998;2023-08-06T18:35:06;94655.78;;;23.04;100.00
12624;BME280;6377;42.836;23.998;2023-08-06T18:40:36;94583.34;;;22.87;100.00
12624;BME280;6377;42.836;23.998;2023-08-06T18:43:04;94618.47;;;23.16;100.00
12624;BME280;6377;42.836;23.998;2023-08-06T18:45:32;94687.19;;;23.62;100.00
12624;BME280;6377;42.836;23.998;2023-08-06T18:48:06;94674.22;;;23.64;100.00
12624;BME280;6377;42.836;23.998;2023-08-06T18:50:39;94696.38;;;23.90;100.00
12624;BME280;6377;42.836;23.998;2023-08-06T18:53:06;94676.28;;;23.77;100.00
12624;BME280;6377;42.836;23.998;2023-08-06T18:55:33;94693.41;;;23.91;100.00
12624;BME280;6377;42.836;23.998;2023-08-06T18:58:01;94698.63;;;23.83;100.00
12624;BME280;6377;42.836;23.998;2023-08-06T19:00:29;94682.94;;;23.56;100.00
12624;BME280;6377;42.836;23.998;2023-08-06T19:02:58;94694.09;;;23.45;100.00
12624;BME280;6377;42.836;23.998;2023-08-06T19:05:25;94699.75;;;23.48;100.00
12624;BME280;6377;42.836;23.998;2023-08-06T19:07:53;94710.69;;;23.62;100.00
12624;BME280;6377;42.836;23.998;2023-08-06T19:10:20;94709.75;;;23.76;100.00
12624;BME280;6377;42.836;23.998;2023-08-06T19:12:49;94700.38;;;23.69;100.00
12624;BME280;6377;42.836;23.998;2023-08-06T19:15:16;94684.56;;;23.52;100.00
12624;BME280;6377;42.836;23.998;2023-08-06T19:17:44;94715.66;;;23.83;100.00
12624;BME280;6377;42.836;23.998;2023-08-06T19:20:12;94718.47;;;23.97;99.77
12624;BME280;6377;42.836;23.998;2023-08-06T19:22:40;94722.97;;;24.07;98.40
12624;BME280;6377;42.836;23.998;2023-08-06T19:25:07;94721.34;;;24.06;96.65
12624;BME280;6377;42.836;23.998;2023-08-06T19:27:35;94730.66;;;24.23;95.71
12624;BME280;6377;42.836;23.998;2023-08-06T19:30:03;94724.78;;;24.16;95.38
12624;BME280;6377;42.836;23.998;2023-08-06T19:32:30;94732.69;;;24.08;98.06
12624;BME280;6377;42.836;23.998;2023-08-06T19:34:57;94721.56;;;23.52;100.00
12624;BME280;6377;42.836;23.998;2023-08-06T19:37:26;94741.00;;;23.54;100.00
12624;BME280;6377;42.836;23.998;2023-08-06T19:39:53;94745.66;;;23.38;100.00
12624;BME280;6377;42.836;23.998;2023-08-06T19:42:20;94750.97;;;23.09;100.00
12624;BME280;6377;42.836;23.998;2023-08-06T19:44:47;94767.47;;;22.98;100.00
12624;BME280;6377;42.836;23.998;2023-08-06T19:47:14;94759.75;;;22.71;100.00
12624;BME280;6377;42.836;23.998;2023-08-06T19:49:44;94722.91;;;22.41;100.00
12624;BME280;6377;42.836;23.998;2023-08-06T19:52:11;94739.28;;;22.55;100.00
12624;BME280;6377;42.836;23.998;2023-08-06T19:54:40;94774.34;;;22.65;100.00
12624;BME280;6377;42.836;23.998;2023-08-06T19:57:07;94779.94;;;22.78;100.00
12624;BME280;6377;42.836;23.998;2023-08-06T19:59:34;94771.78;;;22.94;100.00
12624;BME280;6377;42.836;23.998;2023-08-06T20:02:02;94789.19;;;22.47;100.00
12624;BME280;6377;42.836;23.998;2023-08-06T20:04:29;94788.66;;;22.35;100.00
12624;BME280;6377;42.836;23.998;2023-08-06T20:06:56;94797.63;;;21.95;100.00
12624;BME280;6377;42.836;23.998;2023-08-06T20:09:23;94730.84;;;21.77;100.00
12624;BME280;6377;42.836;23.998;2023-08-06T20:11:52;94735.41;;;21.71;100.00
12624;BME280;6377;42.836;23.998;2023-08-06T20:14:19;94743.47;;;21.56;100.00
12624;BME280;6377;42.836;23.998;2023-08-06T20:16:47;94801.91;;;22.21;100.00
12624;BME280;6377;42.836;23.998;2023-08-06T20:19:14;94786.81;;;22.05;100.00
12624;BME280;6377;42.836;23.998;2023-08-06T20:21:41;94744.81;;;21.59;100.00
12624;BME280;6377;42.836;23.998;2023-08-06T20:24:09;94812.16;;;22.09;100.00
12624;BME280;6377;42.836;23.998;2023-08-06T20:26:37;94822.13;;;22.04;100.00
12624;BME280;6377;42.836;23.998;2023-08-06T20:29:05;94786.81;;;21.60;100.00
12624;BME280;6377;42.836;23.998;2023-08-06T20:31:32;94853.53;;;21.58;100.00
12624;BME280;6377;42.836;23.998;2023-08-06T20:34:00;94887.97;;;21.61;100.00
12624;BME280;6377;42.836;23.998;2023-08-06T20:36:27;94866.16;;;21.52;100.00
12624;BME280;6377;42.836;23.998;2023-08-06T20:38:54;94879.66;;;21.62;100.00
12624;BME280;6377;42.836;23.998;2023-08-06T20:41:21;94846.75;;;21.40;100.00
12624;BME280;6377;42.836;23.998;2023-08-06T20:43:49;94883.94;;;21.58;100.00
12624;BME280;6377;42.836;23.998;2023-08-06T20:46:17;94885.56;;;21.69;100.00
12624;BME280;6377;42.836;23.998;2023-08-06T20:48:45;94880.22;;;21.85;100.00
12624;BME280;6377;42.836;23.998;2023-08-06T20:51:12;94852.22;;;21.75;100.00
12624;BME280;6377;42.836;23.998;2023-08-06T20:53:39;94884.31;;;22.22;100.00
12624;BME280;6377;42.836;23.998;2023-08-06T20:56:06;94843.41;;;22.10;99.60
12624;BME280;6377;42.836;23.998;2023-08-06T20:58:33;94894.25;;;22.52;98.66
12624;BME280;6377;42.836;23.998;2023-08-06T21:01:01;94902.63;;;22.71;94.96
12624;BME280;6377;42.836;23.998;2023-08-06T21:03:29;94899.38;;;22.79;93.91
12624;BME280;6377;42.836;23.998;2023-08-06T21:05:58;94895.06;;;22.78;91.83
12624;BME280;6377;42.836;23.998;2023-08-06T21:08:25;94901.22;;;22.94;92.62
12624;BME280;6377;42.836;23.998;2023-08-06T21:10:53;94909.31;;;23.04;90.64
12624;BME280;6377;42.836;23.998;2023-08-06T21:13:20;94920.06;;;23.09;87.04
12624;BME280;6377;42.836;23.998;2023-08-06T21:15:54;94909.59;;;22.87;88.98
12624;BME280;6377;42.836;23.998;2023-08-06T21:18:21;94932.78;;;22.98;89.10
12624;BME280;6377;42.836;23.998;2023-08-06T21:20:53;94939.25;;;23.07;88.52
12624;BME280;6377;42.836;23.998;2023-08-06T21:23:20;94888.56;;;22.84;87.32
12624;BME280;6377;42.836;23.998;2023-08-06T21:25:49;94947.84;;;23.14;86.07
12624;BME280;6377;42.836;23.998;2023-08-06T21:28:21;94943.31;;;22.90;87.19
12624;BME280;6377;42.836;23.998;2023-08-06T21:30:53;94943.31;;;22.84;89.02
12624;BME280;6377;42.836;23.998;2023-08-06T21:33:21;94918.78;;;22.61;86.84
12624;BME280;6377;42.836;23.998;2023-08-06T21:35:48;94933.38;;;22.75;91.00
12624;BME280;6377;42.836;23.998;2023-08-06T21:38:17;94897.78;;;22.73;89.93
12624;BME280;6377;42.836;23.998;2023-08-06T21:40:44;94912.81;;;23.04;88.07
12624;BME280;6377;42.836;23.998;2023-08-06T21:43:11;94925.19;;;23.15;86.98
12624;BME280;6377;42.836;23.998;2023-08-06T21:45:39;94922.19;;;23.22;85.94
12624;BME280;6377;42.836;23.998;2023-08-06T21:48:06;94915.69;;;23.33;84.46
12624;BME280;6377;42.836;23.998;2023-08-06T21:50:34;94880.41;;;23.14;83.81
12624;BME280;6377;42.836;23.998;2023-08-06T21:53:01;94908.41;;;23.38;83.51
12624;BME280;6377;42.836;23.998;2023-08-06T21:55:33;94903.81;;;23.29;83.67
12624;BME280;6377;42.836;23.998;2023-08-06T21:58:00;94907.56;;;23.38;83.68
12624;BME280;6377;42.836;23.998;2023-08-06T22:00:27;94922.41;;;23.40;83.98
12624;BME280;6377;42.836;23.998;2023-08-06T22:02:54;94930.25;;;23.32;84.75
12624;BME280;6377;42.836;23.998;2023-08-06T22:05:22;94926.25;;;23.24;85.11
12624;BME280;6377;42.836;23.998;2023-08-06T22:07:49;94908.16;;;23.25;84.34
12624;BME280;6377;42.836;23.998;2023-08-06T22:10:16;94939.97;;;23.28;84.01
12624;BME280;6377;42.836;23.998;2023-08-06T22:12:45;94934.63;;;23.08;86.29
12624;BME280;6377;42.836;23.998;2023-08-06T22:15:13;94927.41;;;22.53;76.61
12624;BME280;6377;42.836;23.998;2023-08-06T22:17:40;94941.69;;;22.23;79.98
12624;BME280;6377;42.836;23.998;2023-08-06T22:20:08;94945.34;;;21.71;79.18
12624;BME280;6377;42.836;23.998;2023-08-06T22:22:35;94944.03;;;21.17;88.46
12624;BME280;6377;42.836;23.998;2023-08-06T22:25:05;94954.88;;;20.90;93.50
12624;BME280;6377;42.836;23.998;2023-08-06T22:27:33;94944.66;;;20.50;96.22
12624;BME280;6377;42.836;23.998;2023-08-06T22:30:02;94929.75;;;20.33;100.00
12624;BME280;6377;42.836;23.998;2023-08-06T22:32:29;94950.44;;;20.32;99.01
12624;BME280;6377;42.836;23.998;2023-08-06T22:34:57;94964.28;;;20.51;100.00
12624;BME280;6377;42.836;23.998;2023-08-06T22:37:24;94922.34;;;20.18;87.44
12624;BME280;6377;42.836;23.998;2023-08-06T22:39:52;94953.44;;;20.41;85.54
12624;BME280;6377;42.836;23.998;2023-08-06T22:42:25;94917.91;;;20.29;86.54
12624;BME280;6377;42.836;23.998;2023-08-06T22:44:52;94919.03;;;20.33;83.09
12624;BME280;6377;42.836;23.998;2023-08-06T22:47:21;94942.97;;;20.39;77.27
12624;BME280;6377;42.836;23.998;2023-08-06T22:49:49;94943.09;;;20.54;88.78
12624;BME280;6377;42.836;23.998;2023-08-06T22:52:16;94960.81;;;20.55;75.92
12624;BME280;6377;42.836;23.998;2023-08-06T22:54:43;94962.47;;;20.61;76.43
12624;BME280;6377;42.836;23.998;2023-08-06T22:57:11;94949.41;;;20.38;71.88
12624;BME280;6377;42.836;23.998;2023-08-06T22:59:38;94969.38;;;20.52;76.87
12624;BME280;6377;42.836;23.998;2023-08-06T23:02:05;94954.59;;;20.50;75.87
12624;BME280;6377;42.836;23.998;2023-08-06T23:04:34;94973.94;;;20.52;75.64
12624;BME280;6377;42.836;23.998;2023-08-06T23:07:01;94958.28;;;20.39;79.29
12624;BME280;6377;42.836;23.998;2023-08-06T23:09:29;94982.97;;;20.36;76.87
12624;BME280;6377;42.836;23.998;2023-08-06T23:11:56;94981.72;;;20.48;82.07
12624;BME280;6377;42.836;23.998;2023-08-06T23:14:24;94987.50;;;20.67;81.37
12624;BME280;6377;42.836;23.998;2023-08-06T23:16:52;94990.34;;;20.87;77.45
12624;BME280;6377;42.836;23.998;2023-08-06T23:19:19;94993.47;;;21.11;75.07
12624;BME280;6377;42.836;23.998;2023-08-06T23:21:48;94986.91;;;21.39;77.06
12624;BME280;6377;42.836;23.998;2023-08-06T23:24:16;94995.59;;;21.56;73.52
12624;BME280;6377;42.836;23.998;2023-08-06T23:26:43;94972.97;;;21.47;72.20
12624;BME280;6377;42.836;23.998;2023-08-06T23:29:10;94985.84;;;21.40;70.67
12624;BME280;6377;42.836;23.998;2023-08-06T23:31:37;95005.25;;;21.05;67.59
12624;BME280;6377;42.836;23.998;2023-08-06T23:34:05;95004.19;;;20.69;63.76
12624;BME280;6377;42.836;23.998;2023-08-06T23:36:34;95001.69;;;20.57;66.64
12624;BME280;6377;42.836;23.998;2023-08-06T23:39:03;94997.44;;;20.35;70.74
12624;BME280;6377;42.836;23.998;2023-08-06T23:41:32;95001.59;;;20.47;71.44
12624;BME280;6377;42.836;23.998;2023-08-06T23:43:59;94999.78;;;20.58;70.40
12624;BME280;6377;42.836;23.998;2023-08-06T23:46:26;94995.16;;;20.48;71.41
12624;BME280;6377;42.836;23.998;2023-08-06T23:48:54;94990.03;;;20.47;69.94
12624;BME280;6377;42.836;23.998;2023-08-06T23:51:21;95001.06;;;20.45;70.66
12624;BME280;6377;42.836;23.998;2023-08-06T23:53:48;94998.81;;;20.37;71.25
12624;BME280;6377;42.836;23.998;2023-08-06T23:56:18;94988.31;;;20.09;72.80
12624;BME280;6377;42.836;23.998;2023-08-06T23:58:45;95006.75;;;20.00;72.00
